sensor_id;sensor_type;location;lat;lon;timestamp;pressure;altitude;pressure_sealevel;temperature;humidity
54540;BME280;40438;52.992;18.604;2022-08-19T00:02:20;100481.97;;;23.27;79.38
54540;BME280;40438;52.992;18.604;2022-08-19T00:04:47;100476.00;;;23.25;79.72
54540;BME280;40438;52.992;18.604;2022-08-19T00:07:12;100481.91;;;23.19;80.23
54540;BME280;40438;52.992;18.604;2022-08-19T00:09:38;100478.94;;;23.15;80.03
54540;BME280;40438;52.992;18.604;2022-08-19T00:12:04;100477.75;;;23.07;80.31
54540;BME280;40438;52.992;18.604;2022-08-19T00:14:30;100488.66;;;23.07;80.42
54540;BME280;40438;52.992;18.604;2022-08-19T00:16:56;100484.94;;;23.03;80.78
54540;BME280;40438;52.992;18.604;2022-08-19T00:19:22;100486.94;;;22.98;80.90
54540;BME280;40438;52.992;18.604;2022-08-19T00:21:50;100487.22;;;22.96;80.94
54540;BME280;40438;52.992;18.604;2022-08-19T00:24:16;100486.75;;;22.94;81.02
54540;BME280;40438;52.992;18.604;2022-08-19T00:26:44;100491.88;;;22.96;80.96
54540;BME280;40438;52.992;18.604;2022-08-19T00:29:11;100491.88;;;22.96;81.15
54540;BME280;40438;52.992;18.604;2022-08-19T00:31:37;100491.59;;;22.97;80.87
54540;BME280;40438;52.992;18.604;2022-08-19T00:34:03;100481.47;;;22.98;80.92
54540;BME280;40438;52.992;18.604;2022-08-19T00:36:29;100487.22;;;22.96;81.00
54540;BME280;40438;52.992;18.604;2022-08-19T00:38:56;100487.56;;;22.94;81.19
54540;BME280;40438;52.992;18.604;2022-08-19T00:41:23;100480.25;;;22.90;81.27
54540;BME280;40438;52.992;18.604;2022-08-19T00:44:00;100486.31;;;22.87;81.71
54540;BME280;40438;52.992;18.604;2022-08-19T00:46:27;100480.94;;;22.82;81.88
54540;BME280;40438;52.992;18.604;2022-08-19T00:48:52;100478.00;;;22.78;82.21
54540;BME280;40438;52.992;18.604;2022-08-19T00:51:19;100482.34;;;22.79;82.06
54540;BME280;40438;52.992;18.604;2022-08-19T00:53:45;100488.41;;;22.76;82.08
54540;BME280;40438;52.992;18.604;2022-08-19T00:56:12;100489.31;;;22.71;82.49
54540;BME280;40438;52.992;18.604;2022-08-19T00:58:38;100493.66;;;22.73;82.29
54540;BME280;40438;52.992;18.604;2022-08-19T01:01:04;100488.00;;;22.69;82.56
54540;BME280;40438;52.992;18.604;2022-08-19T01:03:30;100489.13;;;22.68;82.63
54540;BME280;40438;52.992;18.604;2022-08-19T01:05:55;100488.88;;;22.64;82.95
54540;BME280;40438;52.992;18.604;2022-08-19T01:08:22;100487.47;;;22.67;82.69
54540;BME280;40438;52.992;18.604;2022-08-19T01:10:51;100490.22;;;22.67;82.49
54540;BME280;40438;52.992;18.604;2022-08-19T01:13:20;100492.47;;;22.65;82.89
54540;BME280;40438;52.992;18.604;2022-08-19T01:15:50;100487.00;;;22.65;82.53
54540;BME280;40438;52.992;18.604;2022-08-19T01:18:18;100476.69;;;22.62;82.71
54540;BME280;40438;52.992;18.604;2022-08-19T01:20:45;100481.81;;;22.63;82.64
54540;BME280;40438;52.992;18.604;2022-08-19T01:23:13;100476.97;;;22.60;82.70
54540;BME280;40438;52.992;18.604;2022-08-19T01:25:42;100480.81;;;22.59;82.89
54540;BME280;40438;52.992;18.604;2022-08-19T01:28:15;100474.03;;;22.57;82.99
54540;BME280;40438;52.992;18.604;2022-08-19T01:30:41;100482.53;;;22.55;82.96
54540;BME280;40438;52.992;18.604;2022-08-19T01:33:07;100477.06;;;22.55;82.97
54540;BME280;40438;52.992;18.604;2022-08-19T01:35:33;100471.81;;;22.59;82.69
54540;BME280;40438;52.992;18.604;2022-08-19T01:38:02;100471.81;;;22.59;82.69
54540;BME280;40438;52.992;18.604;2022-08-19T01:40:31;100467.16;;;22.59;82.65
54540;BME280;40438;52.992;18.604;2022-08-19T01:42:57;100468.56;;;22.57;82.88
54540;BME280;40438;52.992;18.604;2022-08-19T01:45:24;100463.72;;;22.54;83.10
54540;BME280;40438;52.992;18.604;2022-08-19T01:47:52;100459.38;;;22.53;82.97
54540;BME280;40438;52.992;18.604;2022-08-19T01:50:18;100470.50;;;22.56;82.67
54540;BME280;40438;52.992;18.604;2022-08-19T01:52:44;100467.63;;;22.47;82.96
54540;BME280;40438;52.992;18.604;2022-08-19T01:55:13;100460.66;;;22.41;83.37
54540;BME280;40438;52.992;18.604;2022-08-19T01:57:44;100459.44;;;22.34;83.90
54540;BME280;40438;52.992;18.604;2022-08-19T02:00:13;100454.38;;;22.27;84.08
54540;BME280;40438;52.992;18.604;2022-08-19T02:02:40;100449.19;;;22.25;84.43
54540;BME280;40438;52.992;18.604;2022-08-19T02:05:06;100445.66;;;22.25;84.45
54540;BME280;40438;52.992;18.604;2022-08-19T02:07:32;100444.66;;;22.21;84.49
54540;BME280;40438;52.992;18.604;2022-08-19T02:09:57;100434.53;;;22.21;84.40
54540;BME280;40438;52.992;18.604;2022-08-19T02:12:23;100433.13;;;22.24;84.26
54540;BME280;40438;52.992;18.604;2022-08-19T02:14:50;100428.50;;;22.24;84.17
54540;BME280;40438;52.992;18.604;2022-08-19T02:17:16;100434.47;;;22.27;84.08
54540;BME280;40438;52.992;18.604;2022-08-19T02:19:42;100428.19;;;22.26;84.13
54540;BME280;40438;52.992;18.604;2022-08-19T02:22:07;100427.47;;;22.20;84.22
54540;BME280;40438;52.992;18.604;2022-08-19T02:24:33;100424.00;;;22.15;84.71
54540;BME280;40438;52.992;18.604;2022-08-19T02:26:59;100423.19;;;22.14;84.69
54540;BME280;40438;52.992;18.604;2022-08-19T02:29:24;100422.38;;;22.14;84.79
54540;BME280;40438;52.992;18.604;2022-08-19T02:31:51;100414.47;;;22.12;84.80
54540;BME280;40438;52.992;18.604;2022-08-19T02:34:17;100411.34;;;22.05;84.85
54540;BME280;40438;52.992;18.604;2022-08-19T02:36:43;100418.19;;;22.02;85.38
54540;BME280;40438;52.992;18.604;2022-08-19T02:39:09;100411.72;;;21.98;85.72
54540;BME280;40438;52.992;18.604;2022-08-19T02:41:34;100422.69;;;21.93;85.65
54540;BME280;40438;52.992;18.604;2022-08-19T02:44:03;100427.34;;;21.93;85.46
54540;BME280;40438;52.992;18.604;2022-08-19T02:46:31;100426.63;;;21.87;85.79
54540;BME280;40438;52.992;18.604;2022-08-19T02:49:00;100429.44;;;21.82;86.39
54540;BME280;40438;52.992;18.604;2022-08-19T02:51:29;100435.50;;;21.79;86.49
54540;BME280;40438;52.992;18.604;2022-08-19T02:53:56;100439.03;;;21.79;86.43
54540;BME280;40438;52.992;18.604;2022-08-19T02:56:22;100428.72;;;21.76;86.42
54540;BME280;40438;52.992;18.604;2022-08-19T02:58:48;100424.66;;;21.74;86.65
54540;BME280;40438;52.992;18.604;2022-08-19T03:01:20;100424.06;;;21.77;86.75
54540;BME280;40438;52.992;18.604;2022-08-19T03:03:46;100418.59;;;21.77;86.79
54540;BME280;40438;52.992;18.604;2022-08-19T03:06:15;100425.06;;;21.81;86.70
54540;BME280;40438;52.992;18.604;2022-08-19T03:08:43;100419.63;;;21.81;86.62
54540;BME280;40438;52.992;18.604;2022-08-19T03:11:13;100423.41;;;21.85;86.23
54540;BME280;40438;52.992;18.604;2022-08-19T03:13:39;100421.47;;;21.86;86.40
54540;BME280;40438;52.992;18.604;2022-08-19T03:16:05;100417.63;;;21.87;86.48
54540;BME280;40438;52.992;18.604;2022-08-19T03:18:31;100418.16;;;21.89;86.25
54540;BME280;40438;52.992;18.604;2022-08-19T03:20:57;100427.63;;;21.91;86.17
54540;BME280;40438;52.992;18.604;2022-08-19T03:23:24;100424.63;;;21.93;86.31
54540;BME280;40438;52.992;18.604;2022-08-19T03:25:51;100424.91;;;21.91;86.21
54540;BME280;40438;52.992;18.604;2022-08-19T03:28:17;100424.91;;;21.91;86.39
54540;BME280;40438;52.992;18.604;2022-08-19T03:30:55;100433.63;;;21.93;86.26
54540;BME280;40438;52.992;18.604;2022-08-19T03:33:21;100423.81;;;21.92;86.16
54540;BME280;40438;52.992;18.604;2022-08-19T03:35:47;100432.22;;;21.96;85.90
54540;BME280;40438;52.992;18.604;2022-08-19T03:38:13;100428.69;;;21.95;85.98
54540;BME280;40438;52.992;18.604;2022-08-19T03:40:40;100431.91;;;21.97;85.91
54540;BME280;40438;52.992;18.604;2022-08-19T03:43:05;100429.16;;;21.97;85.96
54540;BME280;40438;52.992;18.604;2022-08-19T03:45:31;100426.75;;;21.96;86.19
54540;BME280;40438;52.992;18.604;2022-08-19T03:47:57;100423.22;;;21.95;86.10
54540;BME280;40438;52.992;18.604;2022-08-19T03:50:23;100422.19;;;21.91;86.46
54540;BME280;40438;52.992;18.604;2022-08-19T03:52:49;100428.53;;;21.87;87.08
54540;BME280;40438;52.992;18.604;2022-08-19T03:55:15;100421.38;;;21.91;86.46
54540;BME280;40438;52.992;18.604;2022-08-19T03:57:42;100416.50;;;21.88;86.54
54540;BME280;40438;52.992;18.604;2022-08-19T04:00:09;100417.41;;;21.83;87.00
54540;BME280;40438;52.992;18.604;2022-08-19T04:02:35;100408.94;;;21.85;86.76
54540;BME280;40438;52.992;18.604;2022-08-19T04:05:00;100404.06;;;21.82;87.05
54540;BME280;40438;52.992;18.604;2022-08-19T04:07:26;100416.31;;;21.84;87.24
54540;BME280;40438;52.992;18.604;2022-08-19T04:09:52;100416.31;;;21.84;87.28
54540;BME280;40438;52.992;18.604;2022-08-19T04:12:17;100409.75;;;21.85;87.68
54540;BME280;40438;52.992;18.604;2022-08-19T04:14:45;100407.53;;;21.87;87.41
54540;BME280;40438;52.992;18.604;2022-08-19T04:17:10;100412.38;;;21.90;87.16
54540;BME280;40438;52.992;18.604;2022-08-19T04:19:36;100416.66;;;21.96;87.16
54540;BME280;40438;52.992;18.604;2022-08-19T04:22:03;100417.38;;;22.02;86.62
54540;BME280;40438;52.992;18.604;2022-08-19T04:24:28;100415.47;;;22.02;87.09
54540;BME280;40438;52.992;18.604;2022-08-19T04:26:54;100414.34;;;22.03;86.94
54540;BME280;40438;52.992;18.604;2022-08-19T04:29:22;100408.59;;;22.05;87.03
54540;BME280;40438;52.992;18.604;2022-08-19T04:31:49;100410.44;;;22.10;86.79
54540;BME280;40438;52.992;18.604;2022-08-19T04:34:18;100410.88;;;22.17;86.49
54540;BME280;40438;52.992;18.604;2022-08-19T04:36:44;100411.41;;;22.19;86.54
54540;BME280;40438;52.992;18.604;2022-08-19T04:39:12;100413.53;;;22.22;86.29
54540;BME280;40438;52.992;18.604;2022-08-19T04:41:38;100418.19;;;22.21;85.86
54540;BME280;40438;52.992;18.604;2022-08-19T04:44:04;100432.03;;;22.25;85.56
54540;BME280;40438;52.992;18.604;2022-08-19T04:46:30;100425.44;;;22.26;85.63
54540;BME280;40438;52.992;18.604;2022-08-19T04:48:57;100429.22;;;22.30;85.39
54540;BME280;40438;52.992;18.604;2022-08-19T04:51:23;100438.69;;;22.33;85.29
54540;BME280;40438;52.992;18.604;2022-08-19T04:53:49;100444.66;;;22.35;85.31
54540;BME280;40438;52.992;18.604;2022-08-19T04:56:16;100452.06;;;22.34;85.24
54540;BME280;40438;52.992;18.604;2022-08-19T04:58:44;100444.38;;;22.36;85.34
54540;BME280;40438;52.992;18.604;2022-08-19T05:01:12;100438.63;;;22.38;85.27
54540;BME280;40438;52.992;18.604;2022-08-19T05:03:38;100439.34;;;22.43;85.05
54540;BME280;40438;52.992;18.604;2022-08-19T05:06:06;100438.63;;;22.52;85.41
54540;BME280;40438;52.992;18.604;2022-08-19T05:08:33;100436.63;;;22.57;85.52
54540;BME280;40438;52.992;18.604;2022-08-19T05:10:59;100426.75;;;22.61;85.25
54540;BME280;40438;52.992;18.604;2022-08-19T05:13:25;100432.09;;;22.66;85.09
54540;BME280;40438;52.992;18.604;2022-08-19T05:15:54;100430.34;;;22.70;85.15
54540;BME280;40438;52.992;18.604;2022-08-19T05:18:20;100429.75;;;22.74;84.54
54540;BME280;40438;52.992;18.604;2022-08-19T05:20:45;100432.41;;;22.79;84.17
54540;BME280;40438;52.992;18.604;2022-08-19T05:23:13;100428.66;;;22.88;83.71
54540;BME280;40438;52.992;18.604;2022-08-19T05:25:39;100428.03;;;22.91;83.81
54540;BME280;40438;52.992;18.604;2022-08-19T05:28:05;100425.53;;;22.95;83.90
54540;BME280;40438;52.992;18.604;2022-08-19T05:30:30;100414.00;;;22.98;83.54
54540;BME280;40438;52.992;18.604;2022-08-19T05:32:56;100412.59;;;23.01;83.29
54540;BME280;40438;52.992;18.604;2022-08-19T05:35:22;100408.66;;;23.07;82.85
54540;BME280;40438;52.992;18.604;2022-08-19T05:37:48;100408.50;;;23.12;82.49
54540;BME280;40438;52.992;18.604;2022-08-19T05:40:15;100416.09;;;23.15;82.82
54540;BME280;40438;52.992;18.604;2022-08-19T05:42:40;100418.72;;;23.20;82.55
54540;BME280;40438;52.992;18.604;2022-08-19T05:45:07;100421.66;;;23.24;82.27
54540;BME280;40438;52.992;18.604;2022-08-19T05:47:33;100425.72;;;23.26;81.81
54540;BME280;40438;52.992;18.604;2022-08-19T05:49:59;100426.41;;;23.32;81.78
54540;BME280;40438;52.992;18.604;2022-08-19T05:52:25;100434.28;;;23.33;81.91
54540;BME280;40438;52.992;18.604;2022-08-19T05:54:51;100445.13;;;23.38;82.12
54540;BME280;40438;52.992;18.604;2022-08-19T05:57:18;100447.72;;;23.44;81.95
54540;BME280;40438;52.992;18.604;2022-08-19T05:59:43;100451.47;;;23.48;81.19
54540;BME280;40438;52.992;18.604;2022-08-19T06:02:09;100447.00;;;23.52;81.93
54540;BME280;40438;52.992;18.604;2022-08-19T06:04:35;100448.69;;;23.61;81.07
54540;BME280;40438;52.992;18.604;2022-08-19T06:07:01;100441.00;;;23.63;81.27
54540;BME280;40438;52.992;18.604;2022-08-19T06:09:27;100434.34;;;23.70;81.00
54540;BME280;40438;52.992;18.604;2022-08-19T06:11:54;100428.44;;;23.76;81.34
54540;BME280;40438;52.992;18.604;2022-08-19T06:14:23;100424.94;;;23.84;81.13
54540;BME280;40438;52.992;18.604;2022-08-19T06:16:49;100429.16;;;23.91;80.80
54540;BME280;40438;52.992;18.604;2022-08-19T06:19:17;100435.84;;;23.98;80.75
54540;BME280;40438;52.992;18.604;2022-08-19T06:21:45;100437.00;;;24.06;80.54
54540;BME280;40438;52.992;18.604;2022-08-19T06:24:13;100441.41;;;24.16;79.85
54540;BME280;40438;52.992;18.604;2022-08-19T06:26:42;100435.19;;;24.24;78.94
54540;BME280;40438;52.992;18.604;2022-08-19T06:29:10;100436.06;;;24.33;77.99
54540;BME280;40438;52.992;18.604;2022-08-19T06:31:42;100441.38;;;24.38;78.87
54540;BME280;40438;52.992;18.604;2022-08-19T06:34:08;100443.06;;;24.48;78.45
54540;BME280;40438;52.992;18.604;2022-08-19T06:36:37;100447.47;;;24.58;77.54
54540;BME280;40438;52.992;18.604;2022-08-19T06:39:03;100444.13;;;24.69;76.98
54540;BME280;40438;52.992;18.604;2022-08-19T06:41:30;100436.75;;;24.78;76.75
54540;BME280;40438;52.992;18.604;2022-08-19T06:43:56;100440.97;;;24.85;76.36
54540;BME280;40438;52.992;18.604;2022-08-19T06:46:22;100441.66;;;24.99;74.62
54540;BME280;40438;52.992;18.604;2022-08-19T06:48:50;100435.56;;;25.11;74.77
54540;BME280;40438;52.992;18.604;2022-08-19T06:51:17;100432.25;;;25.22;73.10
54540;BME280;40438;52.992;18.604;2022-08-19T06:53:42;100435.31;;;25.30;72.49
54540;BME280;40438;52.992;18.604;2022-08-19T06:56:08;100421.63;;;25.38;72.41
54540;BME280;40438;52.992;18.604;2022-08-19T06:58:34;100422.59;;;25.51;70.81
54540;BME280;40438;52.992;18.604;2022-08-19T07:01:01;100429.53;;;25.57;70.98
54540;BME280;40438;52.992;18.604;2022-08-19T07:03:29;100425.16;;;25.65;70.16
54540;BME280;40438;52.992;18.604;2022-08-19T07:05:57;100416.28;;;25.77;69.03
54540;BME280;40438;52.992;18.604;2022-08-19T07:08:23;100415.03;;;25.83;69.34
54540;BME280;40438;52.992;18.604;2022-08-19T07:10:49;100411.63;;;25.86;68.30
54540;BME280;40438;52.992;18.604;2022-08-19T07:13:14;100399.38;;;25.92;68.18
54540;BME280;40438;52.992;18.604;2022-08-19T07:15:40;100398.06;;;25.98;67.93
54540;BME280;40438;52.992;18.604;2022-08-19T07:18:06;100398.38;;;26.05;68.13
54540;BME280;40438;52.992;18.604;2022-08-19T07:20:31;100404.34;;;26.07;67.46
54540;BME280;40438;52.992;18.604;2022-08-19T07:22:58;100401.09;;;26.14;67.16
54540;BME280;40438;52.992;18.604;2022-08-19T07:25:24;100390.72;;;26.28;66.89
54540;BME280;40438;52.992;18.604;2022-08-19T07:27:50;100396.34;;;26.32;67.08
54540;BME280;40438;52.992;18.604;2022-08-19T07:30:16;100404.56;;;26.40;66.67
54540;BME280;40438;52.992;18.604;2022-08-19T07:32:41;100402.94;;;26.48;66.62
54540;BME280;40438;52.992;18.604;2022-08-19T07:35:08;100406.44;;;26.57;66.43
54540;BME280;40438;52.992;18.604;2022-08-19T07:37:34;100408.38;;;26.66;65.62
54540;BME280;40438;52.992;18.604;2022-08-19T07:40:01;100414.13;;;26.73;65.87
54540;BME280;40438;52.992;18.604;2022-08-19T07:42:27;100423.16;;;26.82;66.31
54540;BME280;40438;52.992;18.604;2022-08-19T07:44:53;100401.44;;;26.89;64.06
54540;BME280;40438;52.992;18.604;2022-08-19T07:47:18;100403.22;;;26.94;63.67
54540;BME280;40438;52.992;18.604;2022-08-19T07:49:44;100402.34;;;27.02;63.52
54540;BME280;40438;52.992;18.604;2022-08-19T07:52:10;100396.78;;;27.11;63.72
54540;BME280;40438;52.992;18.604;2022-08-19T07:54:37;100408.91;;;27.18;63.33
54540;BME280;40438;52.992;18.604;2022-08-19T07:57:06;100408.97;;;27.30;62.98
54540;BME280;40438;52.992;18.604;2022-08-19T07:59:32;100409.72;;;27.40;62.15
54540;BME280;40438;52.992;18.604;2022-08-19T08:01:58;100401.41;;;27.48;61.79
54540;BME280;40438;52.992;18.604;2022-08-19T08:04:24;100399.25;;;27.54;61.40
54540;BME280;40438;52.992;18.604;2022-08-19T08:06:50;100411.31;;;27.62;61.13
54540;BME280;40438;52.992;18.604;2022-08-19T08:09:17;100398.34;;;27.62;59.36
54540;BME280;40438;52.992;18.604;2022-08-19T08:11:45;100398.28;;;27.71;59.47
54540;BME280;40438;52.992;18.604;2022-08-19T08:14:13;100398.28;;;27.71;59.44
54540;BME280;40438;52.992;18.604;2022-08-19T08:16:38;100397.13;;;27.72;59.89
54540;BME280;40438;52.992;18.604;2022-08-19T08:19:04;100392.75;;;27.80;59.10
54540;BME280;40438;52.992;18.604;2022-08-19T08:21:30;100376.59;;;27.90;58.59
54540;BME280;40438;52.992;18.604;2022-08-19T08:23:56;100380.97;;;27.91;58.60
54540;BME280;40438;52.992;18.604;2022-08-19T08:26:22;100373.63;;;27.95;58.17
54540;BME280;40438;52.992;18.604;2022-08-19T08:28:48;100376.63;;;28.03;57.79
54540;BME280;40438;52.992;18.604;2022-08-19T08:31:15;100380.44;;;28.10;57.50
54540;BME280;40438;52.992;18.604;2022-08-19T08:33:41;100380.31;;;28.19;57.06
54540;BME280;40438;52.992;18.604;2022-08-19T08:36:07;100377.69;;;28.22;55.70
54540;BME280;40438;52.992;18.604;2022-08-19T08:38:34;100372.78;;;28.28;55.05
54540;BME280;40438;52.992;18.604;2022-08-19T08:41:07;100373.16;;;28.39;55.39
54540;BME280;40438;52.992;18.604;2022-08-19T08:43:37;100371.66;;;28.54;54.85
54540;BME280;40438;52.992;18.604;2022-08-19T08:46:10;100363.53;;;28.69;53.26
54540;BME280;40438;52.992;18.604;2022-08-19T08:48:44;100364.66;;;28.81;53.07
54540;BME280;40438;52.992;18.604;2022-08-19T08:51:17;100359.03;;;28.89;52.03
54540;BME280;40438;52.992;18.604;2022-08-19T08:53:44;100364.28;;;28.95;52.36
54540;BME280;40438;52.992;18.604;2022-08-19T08:56:12;100352.25;;;28.99;52.82
54540;BME280;40438;52.992;18.604;2022-08-19T08:58:47;100373.63;;;29.02;51.61
54540;BME280;40438;52.992;18.604;2022-08-19T09:01:14;100366.72;;;29.08;52.31
54540;BME280;40438;52.992;18.604;2022-08-19T09:03:42;100363.38;;;29.15;52.16
54540;BME280;40438;52.992;18.604;2022-08-19T09:06:14;100367.50;;;29.21;51.06
54540;BME280;40438;52.992;18.604;2022-08-19T09:08:48;100359.75;;;29.27;51.74
54540;BME280;40438;52.992;18.604;2022-08-19T09:11:17;100365.75;;;29.29;52.05
54540;BME280;40438;52.992;18.604;2022-08-19T09:13:51;100374.91;;;29.33;52.05
54540;BME280;40438;52.992;18.604;2022-08-19T09:16:22;100352.53;;;29.34;52.17
54540;BME280;40438;52.992;18.604;2022-08-19T09:18:51;100354.00;;;29.32;51.44
54540;BME280;40438;52.992;18.604;2022-08-19T09:21:18;100346.63;;;29.36;51.55
54540;BME280;40438;52.992;18.604;2022-08-19T09:23:44;100354.13;;;29.35;51.77
54540;BME280;40438;52.992;18.604;2022-08-19T09:26:11;100354.31;;;29.43;52.21
54540;BME280;40438;52.992;18.604;2022-08-19T09:28:37;100348.56;;;29.48;52.45
54540;BME280;40438;52.992;18.604;2022-08-19T09:31:03;100359.44;;;29.56;52.66
54540;BME280;40438;52.992;18.604;2022-08-19T09:33:29;100357.91;;;29.59;51.86
54540;BME280;40438;52.992;18.604;2022-08-19T09:36:04;100342.41;;;29.67;51.69
54540;BME280;40438;52.992;18.604;2022-08-19T09:38:30;100333.84;;;29.72;51.31
54540;BME280;40438;52.992;18.604;2022-08-19T09:40:55;100344.03;;;29.83;52.26
54540;BME280;40438;52.992;18.604;2022-08-19T09:43:21;100342.53;;;29.86;51.13
54540;BME280;40438;52.992;18.604;2022-08-19T09:45:47;100329.34;;;29.95;51.30
54540;BME280;40438;52.992;18.604;2022-08-19T09:48:12;100334.00;;;30.07;51.03
54540;BME280;40438;52.992;18.604;2022-08-19T09:50:38;100332.13;;;30.11;50.84
54540;BME280;40438;52.992;18.604;2022-08-19T09:53:05;100329.53;;;30.18;50.31
54540;BME280;40438;52.992;18.604;2022-08-19T09:55:31;100328.94;;;30.25;49.90
54540;BME280;40438;52.992;18.604;2022-08-19T09:57:57;100323.50;;;30.28;49.43
54540;BME280;40438;52.992;18.604;2022-08-19T10:00:22;100332.69;;;30.33;50.29
54540;BME280;40438;52.992;18.604;2022-08-19T10:02:48;100324.72;;;30.47;49.50
54540;BME280;40438;52.992;18.604;2022-08-19T10:05:14;100338.22;;;30.48;49.87
54540;BME280;40438;52.992;18.604;2022-08-19T10:07:39;100340.75;;;30.57;50.24
54540;BME280;40438;52.992;18.604;2022-08-19T10:10:08;100327.53;;;30.66;49.59
54540;BME280;40438;52.992;18.604;2022-08-19T10:12:34;100326.56;;;30.74;49.75
54540;BME280;40438;52.992;18.604;2022-08-19T10:15:00;100326.03;;;30.85;49.38
54540;BME280;40438;52.992;18.604;2022-08-19T10:17:26;100334.69;;;30.83;49.82
54540;BME280;40438;52.992;18.604;2022-08-19T10:19:52;100321.81;;;30.91;49.32
54540;BME280;40438;52.992;18.604;2022-08-19T10:22:18;100328.28;;;30.98;50.21
54540;BME280;40438;52.992;18.604;2022-08-19T10:24:45;100320.81;;;30.99;50.33
54540;BME280;40438;52.992;18.604;2022-08-19T10:27:12;100311.78;;;31.02;48.03
54540;BME280;40438;52.992;18.604;2022-08-19T10:29:38;100307.78;;;30.99;47.61
54540;BME280;40438;52.992;18.604;2022-08-19T10:32:07;100296.00;;;31.03;48.53
54540;BME280;40438;52.992;18.604;2022-08-19T10:34:34;100289.81;;;31.09;48.10
54540;BME280;40438;52.992;18.604;2022-08-19T10:37:02;100288.34;;;31.15;47.91
54540;BME280;40438;52.992;18.604;2022-08-19T10:39:28;100286.84;;;31.18;47.42
54540;BME280;40438;52.992;18.604;2022-08-19T10:41:54;100292.44;;;31.21;47.03
54540;BME280;40438;52.992;18.604;2022-08-19T10:44:21;100284.13;;;31.21;47.35
54540;BME280;40438;52.992;18.604;2022-08-19T10:46:47;100291.31;;;31.26;47.34
54540;BME280;40438;52.992;18.604;2022-08-19T10:49:13;100287.38;;;31.27;46.94
54540;BME280;40438;52.992;18.604;2022-08-19T10:51:39;100277.50;;;31.26;46.56
54540;BME280;40438;52.992;18.604;2022-08-19T10:54:05;100277.75;;;31.37;47.14
54540;BME280;40438;52.992;18.604;2022-08-19T10:56:32;100283.81;;;31.46;47.52
54540;BME280;40438;52.992;18.604;2022-08-19T10:58:58;100267.72;;;31.52;46.48
54540;BME280;40438;52.992;18.604;2022-08-19T11:01:26;100284.03;;;31.57;46.84
54540;BME280;40438;52.992;18.604;2022-08-19T11:03:52;100282.06;;;31.57;46.69
54540;BME280;40438;52.992;18.604;2022-08-19T11:06:18;100264.72;;;31.60;45.73
54540;BME280;40438;52.992;18.604;2022-08-19T11:08:44;100274.78;;;31.68;46.33
54540;BME280;40438;52.992;18.604;2022-08-19T11:11:10;100258.56;;;31.71;46.41
54540;BME280;40438;52.992;18.604;2022-08-19T11:13:40;100269.03;;;31.81;46.83
54540;BME280;40438;52.992;18.604;2022-08-19T11:16:09;100264.94;;;31.94;46.45
54540;BME280;40438;52.992;18.604;2022-08-19T11:18:38;100271.16;;;32.10;45.37
54540;BME280;40438;52.992;18.604;2022-08-19T11:21:06;100267.44;;;32.26;46.01
54540;BME280;40438;52.992;18.604;2022-08-19T11:23:32;100252.53;;;32.37;45.29
54540;BME280;40438;52.992;18.604;2022-08-19T11:25:58;100242.50;;;32.52;45.71
54540;BME280;40438;52.992;18.604;2022-08-19T11:28:23;100255.78;;;32.70;45.13
54540;BME280;40438;52.992;18.604;2022-08-19T11:30:49;100246.06;;;32.83;44.28
54540;BME280;40438;52.992;18.604;2022-08-19T11:33:15;100240.66;;;32.94;44.14
54540;BME280;40438;52.992;18.604;2022-08-19T11:35:42;100232.81;;;32.99;44.20
54540;BME280;40438;52.992;18.604;2022-08-19T11:38:07;100219.50;;;33.12;44.12
54540;BME280;40438;52.992;18.604;2022-08-19T11:40:33;100212.47;;;33.22;43.70
54540;BME280;40438;52.992;18.604;2022-08-19T11:42:59;100202.38;;;33.44;43.58
54540;BME280;40438;52.992;18.604;2022-08-19T11:45:25;100192.66;;;33.64;42.77
54540;BME280;40438;52.992;18.604;2022-08-19T11:47:52;100195.09;;;33.69;42.06
54540;BME280;40438;52.992;18.604;2022-08-19T11:50:18;100193.06;;;33.66;41.44
54540;BME280;40438;52.992;18.604;2022-08-19T11:52:45;100200.66;;;33.73;40.92
54540;BME280;40438;52.992;18.604;2022-08-19T11:55:11;100193.59;;;33.83;40.81
54540;BME280;40438;52.992;18.604;2022-08-19T11:57:37;100198.38;;;33.86;40.18
54540;BME280;40438;52.992;18.604;2022-08-19T12:00:04;100194.03;;;33.88;39.55
54540;BME280;40438;52.992;18.604;2022-08-19T12:02:30;100206.69;;;33.82;39.39
54540;BME280;40438;52.992;18.604;2022-08-19T12:04:56;100198.78;;;33.84;39.81
54540;BME280;40438;52.992;18.604;2022-08-19T12:07:22;100192.53;;;33.98;39.67
54540;BME280;40438;52.992;18.604;2022-08-19T12:09:49;100202.59;;;34.17;41.00
54540;BME280;40438;52.992;18.604;2022-08-19T12:12:15;100210.50;;;34.11;39.95
54540;BME280;40438;52.992;18.604;2022-08-19T12:14:40;100199.03;;;34.20;39.81
54540;BME280;40438;52.992;18.604;2022-08-19T12:17:06;100193.53;;;34.31;39.77
54540;BME280;40438;52.992;18.604;2022-08-19T12:19:32;100196.75;;;34.36;39.58
54540;BME280;40438;52.992;18.604;2022-08-19T12:22:00;100200.34;;;34.44;40.30
54540;BME280;40438;52.992;18.604;2022-08-19T12:24:25;100200.34;;;34.40;40.13
54540;BME280;40438;52.992;18.604;2022-08-19T12:26:53;100190.44;;;34.47;39.60
54540;BME280;40438;52.992;18.604;2022-08-19T12:29:18;100182.50;;;34.45;39.24
54540;BME280;40438;52.992;18.604;2022-08-19T12:31:44;100201.97;;;34.45;39.78
54540;BME280;40438;52.992;18.604;2022-08-19T12:34:10;100201.63;;;33.95;40.11
54540;BME280;40438;52.992;18.604;2022-08-19T12:36:36;100199.97;;;33.87;40.75
54540;BME280;40438;52.992;18.604;2022-08-19T12:39:02;100207.59;;;33.97;39.73